createdAt,value
2023-05-19T00:02:05.682Z,96.15
2023-05-19T00:05:13.138Z,96.05
2023-05-19T00:08:19.881Z,96.26
2023-05-19T00:11:23.911Z,95.44
2023-05-19T00:14:26.999Z,94.43
2023-05-19T00:17:30.258Z,94.28
2023-05-19T00:20:33.811Z,93.72
2023-05-19T00:23:37.364Z,93.90
2023-05-19T00:26:40.750Z,94.07
2023-05-19T00:29:43.774Z,94.64
2023-05-19T00:32:46.945Z,95.28
2023-05-19T00:35:49.957Z,94.30
2023-05-19T00:38:52.956Z,95.00
2023-05-19T00:41:56.294Z,95.96
2023-05-19T00:44:59.288Z,95.37
2023-05-19T00:48:02.539Z,96.03
2023-05-19T00:51:06.726Z,94.62
2023-05-19T00:54:10.449Z,95.54
2023-05-19T00:57:15.040Z,95.83
2023-05-19T01:00:21.428Z,95.10
2023-05-19T01:03:25.423Z,94.98
2023-05-19T01:06:29.855Z,95.69
2023-05-19T01:09:33.532Z,95.59
2023-05-19T01:12:37.388Z,95.65
2023-05-19T01:15:57.583Z,95.94
2023-05-19T01:19:26.728Z,95.54
2023-05-19T01:22:46.220Z,95.51
2023-05-19T01:26:15.362Z,96.70
2023-05-19T01:29:54.770Z,96.01
2023-05-19T01:33:02.010Z,96.24
2023-05-19T01:36:08.437Z,97.11
2023-05-19T01:39:14.128Z,96.97
2023-05-19T01:42:20.168Z,96.38
2023-05-19T01:45:24.268Z,95.57
2023-05-19T01:48:28.896Z,95.28
2023-05-19T01:51:33.860Z,96.12
2023-05-19T01:54:38.044Z,96.04
2023-05-19T01:58:01.461Z,95.39
2023-05-19T02:01:28.987Z,95.44
2023-05-19T02:04:40.550Z,96.32
2023-05-19T02:08:00.469Z,96.19
2023-05-19T02:11:11.118Z,96.36
2023-05-19T02:14:20.673Z,97.17
2023-05-19T02:17:27.789Z,96.92
2023-05-19T02:20:33.406Z,96.60
2023-05-19T02:23:36.550Z,96.34
2023-05-19T02:26:40.783Z,96.42
2023-05-19T02:29:44.104Z,96.89
2023-05-19T02:32:47.285Z,96.41
2023-05-19T02:35:50.898Z,97.36
2023-05-19T02:38:54.299Z,96.47
2023-05-19T02:41:57.318Z,97.16
2023-05-19T02:45:01.743Z,96.93
2023-05-19T02:48:05.205Z,97.31
2023-05-19T02:51:10.949Z,96.28
2023-05-19T02:54:13.824Z,96.12
2023-05-19T02:57:16.857Z,95.99
2023-05-19T03:00:20.198Z,96.85
2023-05-19T03:03:23.645Z,97.05
2023-05-19T03:06:26.906Z,96.50
2023-05-19T03:09:30.004Z,96.08
2023-05-19T03:12:33.736Z,95.49
2023-05-19T03:15:37.123Z,95.17
2023-05-19T03:18:40.935Z,94.81
2023-05-19T03:21:44.010Z,94.68
2023-05-19T03:24:47.684Z,94.09
2023-05-19T03:27:53.599Z,93.72
2023-05-19T03:30:57.191Z,94.01
2023-05-19T03:34:04.595Z,95.33
2023-05-19T03:37:08.129Z,96.00
2023-05-19T03:40:13.955Z,94.88
2023-05-19T03:43:19.386Z,95.00
2023-05-19T03:46:28.930Z,94.07
2023-05-19T03:49:48.537Z,95.59
2023-05-19T03:53:14.619Z,95.30
2023-05-19T03:56:18.350Z,94.79
2023-05-19T03:59:21.438Z,94.67
2023-05-19T04:02:24.793Z,95.98
2023-05-19T04:05:28.214Z,95.55
2023-05-19T04:08:32.228Z,96.13
2023-05-19T04:11:35.222Z,96.19
2023-05-19T04:14:38.168Z,95.89
2023-05-19T04:17:41.977Z,95.75
2023-05-19T04:20:45.674Z,95.56
2023-05-19T04:23:48.897Z,95.43
2023-05-19T04:26:54.377Z,95.25
2023-05-19T04:29:58.327Z,95.73
2023-05-19T04:33:04.852Z,96.57
2023-05-19T04:36:11.607Z,95.19
2023-05-19T04:39:17.072Z,96.91
2023-05-19T04:42:21.892Z,96.12
2023-05-19T04:45:28.164Z,96.50
2023-05-19T04:48:34.716Z,95.28
2023-05-19T04:51:41.399Z,95.50
2023-05-19T04:54:45.492Z,95.28
2023-05-19T04:57:49.973Z,94.65
2023-05-19T05:00:56.258Z,95.65
2023-05-19T05:03:59.524Z,95.96
2023-05-19T05:10:20.560Z,95.64
2023-05-19T05:13:24.930Z,95.74
2023-05-19T05:16:32.232Z,95.72
2023-05-19T05:19:36.251Z,96.01
2023-05-19T05:22:39.949Z,95.73
2023-05-19T05:25:44.909Z,95.00
2023-05-19T05:28:48.188Z,95.49
2023-05-19T05:31:51.318Z,94.88
2023-05-19T05:34:54.762Z,94.40
2023-05-19T05:37:58.477Z,94.24
2023-05-19T05:41:03.151Z,94.60
2023-05-19T05:44:07.177Z,94.10
2023-05-19T05:47:16.439Z,93.89
2023-05-19T05:50:24.223Z,92.83
2023-05-19T05:53:32.350Z,91.74
2023-05-19T05:56:37.644Z,89.96
2023-05-19T05:59:45.547Z,90.85
2023-05-19T06:02:53.270Z,91.08
2023-05-19T06:05:59.279Z,90.65
2023-05-19T06:09:05.022Z,91.28
2023-05-19T06:12:09.191Z,89.33
2023-05-19T06:15:17.487Z,89.60
2023-05-19T06:18:46.948Z,91.17
2023-05-19T06:21:51.490Z,90.23
2023-05-19T06:24:54.753Z,89.48
2023-05-19T06:27:57.984Z,89.26
2023-05-19T06:31:01.167Z,89.96
2023-05-19T06:34:24.417Z,90.02
2023-05-19T06:37:27.469Z,89.01
2023-05-19T06:40:32.408Z,88.34
2023-05-19T06:43:36.157Z,88.63
2023-05-19T06:46:40.227Z,88.74
2023-05-19T06:49:45.103Z,87.70
2023-05-19T06:52:48.618Z,88.27
2023-05-19T06:55:59.375Z,87.94
2023-05-19T06:59:04.885Z,87.89
2023-05-19T07:02:12.347Z,86.61
2023-05-19T07:05:16.418Z,87.52
2023-05-19T07:08:24.209Z,86.53
2023-05-19T07:11:27.522Z,86.31
2023-05-19T07:14:34.223Z,87.10
2023-05-19T07:17:37.487Z,86.61
2023-05-19T07:20:41.484Z,86.16
2023-05-19T07:23:44.978Z,86.66
2023-05-19T07:26:48.411Z,87.27
2023-05-19T07:29:51.656Z,86.43
2023-05-19T07:32:58.121Z,86.50
2023-05-19T07:36:31.354Z,87.06
2023-05-19T07:39:36.202Z,85.06
2023-05-19T07:42:39.442Z,85.64
2023-05-19T07:45:42.586Z,83.40
2023-05-19T07:48:45.865Z,84.99
2023-05-19T07:51:55.853Z,84.23
2023-05-19T07:54:59.898Z,83.75
2023-05-19T07:58:29.255Z,85.36
2023-05-19T08:01:32.947Z,84.48
2023-05-19T08:04:36.886Z,82.70
2023-05-19T08:07:40.347Z,82.76
2023-05-19T08:10:43.733Z,83.19
2023-05-19T08:13:49.084Z,80.67
2023-05-19T08:16:52.167Z,82.45
2023-05-19T08:19:55.660Z,82.29
2023-05-19T08:22:58.807Z,81.14
2023-05-19T08:26:06.847Z,80.55
2023-05-19T08:29:10.077Z,80.91
2023-05-19T08:32:13.560Z,80.33
2023-05-19T08:35:16.988Z,79.94
2023-05-19T08:38:20.430Z,80.31
2023-05-19T08:41:23.735Z,81.12
2023-05-19T08:44:27.551Z,77.16
2023-05-19T08:47:33.467Z,78.30
2023-05-19T08:50:42.738Z,76.63
2023-05-19T08:53:50.991Z,75.09
2023-05-19T08:56:54.388Z,77.82
2023-05-19T08:59:58.915Z,75.72
2023-05-19T09:03:17.353Z,74.95
2023-05-19T09:06:26.822Z,77.32
2023-05-19T09:09:30.836Z,74.09
2023-05-19T09:12:34.426Z,75.07
2023-05-19T09:15:39.363Z,74.72
2023-05-19T09:18:56.938Z,75.21
2023-05-19T09:22:03.824Z,76.47
2023-05-19T09:25:17.580Z,75.61
2023-05-19T09:28:25.632Z,75.33
2023-05-19T09:31:33.472Z,72.03
2023-05-19T09:34:42.318Z,75.19
2023-05-19T09:37:46.392Z,74.49
2023-05-19T09:40:52.724Z,72.05
2023-05-19T09:44:00.213Z,72.75
2023-05-19T09:47:03.853Z,72.07
2023-05-19T09:50:09.008Z,72.93
2023-05-19T09:53:15.483Z,72.88
2023-05-19T09:56:23.846Z,75.00
2023-05-19T09:59:31.320Z,71.38
2023-05-19T10:02:36.984Z,74.05
2023-05-19T10:05:43.235Z,74.15
2023-05-19T10:08:48.156Z,72.64
2023-05-19T10:11:55.856Z,73.30
2023-05-19T10:14:59.744Z,70.38
2023-05-19T10:18:03.520Z,73.83
2023-05-19T10:21:08.336Z,67.07
2023-05-19T10:24:12.783Z,68.66
2023-05-19T10:27:17.954Z,68.26
2023-05-19T10:30:30.261Z,67.32
2023-05-19T10:33:56.674Z,69.41
2023-05-19T10:37:14.022Z,66.68
2023-05-19T10:40:29.597Z,68.39
2023-05-19T10:43:45.202Z,69.17
2023-05-19T10:46:48.407Z,66.54
2023-05-19T10:49:56.141Z,66.17
2023-05-19T10:53:00.352Z,67.87
2023-05-19T10:56:04.386Z,67.67
2023-05-19T10:59:08.192Z,65.17
2023-05-19T11:02:41.541Z,66.38
2023-05-19T11:05:51.071Z,65.65
2023-05-19T11:08:57.525Z,64.25
2023-05-19T11:12:05.813Z,65.09
2023-05-19T11:15:24.145Z,64.55
2023-05-19T11:18:27.124Z,65.34
2023-05-19T11:21:52.377Z,63.89
2023-05-19T11:24:55.926Z,62.82
2023-05-19T11:27:59.298Z,61.21
2023-05-19T11:31:02.877Z,63.03
2023-05-19T11:34:09.478Z,62.55
2023-05-19T11:37:12.810Z,60.76
2023-05-19T11:40:15.977Z,61.25
2023-05-19T11:43:19.581Z,60.20
2023-05-19T11:46:23.234Z,61.90
2023-05-19T11:49:29.207Z,62.16
2023-05-19T11:52:32.459Z,64.24
2023-05-19T11:55:35.628Z,59.46
2023-05-19T11:58:38.934Z,58.74
2023-05-19T12:01:42.540Z,61.35
2023-05-19T12:04:46.596Z,60.12
2023-05-19T12:07:51.693Z,56.93
2023-05-19T12:10:55.031Z,59.23
2023-05-19T12:14:02.091Z,62.70
2023-05-19T12:17:13.318Z,60.19
2023-05-19T12:20:16.717Z,59.13
2023-05-19T12:23:20.386Z,58.23
2023-05-19T12:26:23.498Z,57.16
2023-05-19T12:29:31.199Z,58.99
2023-05-19T12:32:36.269Z,60.93
2023-05-19T12:35:39.448Z,57.90
2023-05-19T12:38:43.714Z,59.92
2023-05-19T12:41:47.460Z,55.32
2023-05-19T12:44:52.806Z,56.58
2023-05-19T12:47:56.915Z,58.60
2023-05-19T12:51:00.345Z,57.39
2023-05-19T12:54:05.058Z,57.11
2023-05-19T12:57:11.069Z,56.76
2023-05-19T13:00:25.327Z,56.92
2023-05-19T13:03:28.498Z,58.21
2023-05-19T13:06:33.191Z,56.14
2023-05-19T13:09:36.618Z,55.85
2023-05-19T13:12:39.659Z,58.41
2023-05-19T13:15:45.242Z,57.55
2023-05-19T13:18:48.585Z,57.49
2023-05-19T13:21:52.221Z,56.42
2023-05-19T13:24:58.852Z,58.87
2023-05-19T13:28:05.903Z,58.25
2023-05-19T13:31:09.379Z,60.44
2023-05-19T13:34:12.493Z,61.96
2023-05-19T13:37:15.799Z,61.91
2023-05-19T13:40:19.409Z,62.12
2023-05-19T13:43:23.188Z,62.08
2023-05-19T13:46:36.730Z,61.68
2023-05-19T13:49:47.862Z,61.18
2023-05-19T13:52:50.943Z,59.58
2023-05-19T13:55:55.273Z,60.42
2023-05-19T13:58:58.617Z,60.83
2023-05-19T14:02:02.921Z,58.75
2023-05-19T14:05:07.052Z,59.47
2023-05-19T14:08:11.473Z,62.26
2023-05-19T14:11:21.727Z,62.53
2023-05-19T14:14:25.291Z,61.24
2023-05-19T14:17:30.865Z,60.96
2023-05-19T14:20:34.550Z,60.50
2023-05-19T14:23:37.696Z,59.72
2023-05-19T14:26:41.854Z,60.55
2023-05-19T14:29:45.017Z,60.56
2023-05-19T14:32:48.464Z,60.91
2023-05-19T14:35:53.172Z,60.40
2023-05-19T14:38:56.837Z,60.55
2023-05-19T14:41:59.804Z,59.90
2023-05-19T14:45:02.837Z,61.51
2023-05-19T14:48:06.603Z,61.13
2023-05-19T14:51:09.981Z,62.75
2023-05-19T14:54:13.221Z,61.98
2023-05-19T14:57:17.575Z,63.53
2023-05-19T15:00:20.839Z,62.41
2023-05-19T15:03:23.884Z,61.95
2023-05-19T15:06:27.150Z,60.91
2023-05-19T15:09:30.191Z,62.60
2023-05-19T15:12:33.239Z,60.85
2023-05-19T15:15:36.356Z,62.39
2023-05-19T15:18:39.503Z,61.46
2023-05-19T15:21:44.508Z,62.77
2023-05-19T15:24:47.834Z,61.53
2023-05-19T15:27:51.029Z,63.02
2023-05-19T15:30:54.189Z,63.73
2023-05-19T15:33:57.543Z,63.71
2023-05-19T15:37:01.173Z,64.45
2023-05-19T15:40:05.046Z,63.12
2023-05-19T15:43:08.210Z,63.85
2023-05-19T15:46:13.477Z,62.79
2023-05-19T15:49:18.089Z,62.72
2023-05-19T15:52:21.110Z,61.35
2023-05-19T15:55:24.140Z,62.99
2023-05-19T15:58:27.096Z,62.92
2023-05-19T16:01:30.450Z,62.50
2023-05-19T16:04:33.811Z,61.83
2023-05-19T16:07:37.151Z,63.40
2023-05-19T16:10:40.585Z,64.38
2023-05-19T16:13:43.824Z,64.40
2023-05-19T16:16:47.336Z,63.96
2023-05-19T16:19:50.807Z,63.62
2023-05-19T16:22:55.658Z,62.79
2023-05-19T16:25:59.021Z,63.91
2023-05-19T16:29:02.448Z,63.35
2023-05-19T16:32:05.852Z,64.01
2023-05-19T16:35:09.687Z,64.33
2023-05-19T16:38:12.962Z,65.37
2023-05-19T16:41:16.179Z,66.18
2023-05-19T16:44:19.530Z,65.67
2023-05-19T16:47:22.824Z,65.70
2023-05-19T16:50:26.995Z,65.13
2023-05-19T16:53:31.278Z,65.74
2023-05-19T16:56:34.318Z,65.53
2023-05-19T16:59:37.386Z,67.63
2023-05-19T17:02:40.783Z,68.83
2023-05-19T17:05:44.390Z,69.33
2023-05-19T17:08:47.540Z,71.73
2023-05-19T17:11:52.614Z,71.85
2023-05-19T17:14:55.762Z,72.23
2023-05-19T17:17:59.759Z,71.66
2023-05-19T17:21:05.399Z,71.73
2023-05-19T17:24:08.605Z,72.05
2023-05-19T17:27:12.125Z,71.36
2023-05-19T17:30:17.229Z,70.18
2023-05-19T17:33:20.992Z,70.54
2023-05-19T17:36:24.721Z,71.01
2023-05-19T17:39:27.805Z,70.77
2023-05-19T17:42:31.816Z,70.90
2023-05-19T17:45:35.014Z,70.54
2023-05-19T17:48:41.198Z,70.42
2023-05-19T17:51:48.397Z,71.28
2023-05-19T17:54:51.976Z,72.03
2023-05-19T17:57:55.490Z,72.47
2023-05-19T18:00:59.965Z,72.98
2023-05-19T18:04:04.022Z,73.12
2023-05-19T18:07:09.844Z,74.62
2023-05-19T18:10:15.607Z,74.46
2023-05-19T18:13:18.760Z,74.48
2023-05-19T18:16:22.012Z,74.59
2023-05-19T18:19:25.452Z,75.46
2023-05-19T18:22:29.313Z,75.18
2023-05-19T18:25:33.728Z,75.40
2023-05-19T18:28:37.128Z,76.18
2023-05-19T18:31:41.288Z,76.53
2023-05-19T18:34:44.525Z,77.16
2023-05-19T18:37:47.794Z,78.62
2023-05-19T18:40:52.035Z,78.90
2023-05-19T18:43:55.165Z,78.60
2023-05-19T18:46:58.391Z,78.52
2023-05-19T18:50:01.644Z,79.05
2023-05-19T18:53:05.039Z,79.42
2023-05-19T18:56:11.620Z,80.26
2023-05-19T18:59:14.721Z,80.77
2023-05-19T19:02:17.886Z,82.04
2023-05-19T19:05:21.791Z,81.75
2023-05-19T19:08:25.283Z,81.87
2023-05-19T19:11:31.633Z,82.21
2023-05-19T19:14:34.890Z,82.48
2023-05-19T19:17:40.182Z,83.25
2023-05-19T19:20:43.173Z,84.67
2023-05-19T19:23:46.506Z,84.60
2023-05-19T19:26:49.857Z,84.65
2023-05-19T19:29:54.210Z,85.36
2023-05-19T19:32:57.380Z,85.79
2023-05-19T19:36:01.518Z,86.02
2023-05-19T19:39:04.527Z,86.06
2023-05-19T19:42:07.502Z,86.70
2023-05-19T19:45:13.111Z,86.75
2023-05-19T19:48:18.244Z,87.50
2023-05-19T19:51:21.448Z,88.21
2023-05-19T19:54:24.445Z,88.03
2023-05-19T19:57:29.227Z,87.87
2023-05-19T20:00:32.300Z,88.65
2023-05-19T20:03:35.809Z,88.18
2023-05-19T20:06:39.023Z,88.21
2023-05-19T20:09:48.142Z,88.66
2023-05-19T20:12:51.317Z,88.64
2023-05-19T20:15:54.521Z,88.29
2023-05-19T20:18:57.551Z,88.42
2023-05-19T20:22:00.815Z,88.41
2023-05-19T20:25:04.697Z,88.29
2023-05-19T20:28:08.573Z,88.05
2023-05-19T20:31:11.602Z,87.68
2023-05-19T20:34:15.084Z,88.11
2023-05-19T20:37:18.156Z,87.87
2023-05-19T20:40:21.337Z,88.18
2023-05-19T20:43:24.458Z,89.07
2023-05-19T20:46:28.101Z,88.57
2023-05-19T20:49:31.850Z,88.73
2023-05-19T20:52:35.443Z,88.89
2023-05-19T20:55:39.259Z,88.84
2023-05-19T20:58:42.714Z,88.81
2023-05-19T21:01:46.099Z,89.09
2023-05-19T21:04:49.938Z,88.99
2023-05-19T21:07:53.226Z,88.56
2023-05-19T21:10:57.666Z,88.12
2023-05-19T21:14:04.409Z,87.80
2023-05-19T21:17:07.919Z,87.91
2023-05-19T21:20:11.791Z,87.57
2023-05-19T21:23:15.076Z,88.01
2023-05-19T21:26:22.283Z,87.56
2023-05-19T21:29:27.466Z,87.18
2023-05-19T21:32:30.535Z,86.96
2023-05-19T21:35:33.731Z,86.77
2023-05-19T21:38:39.845Z,87.00
2023-05-19T21:41:43.077Z,87.05
2023-05-19T21:44:46.171Z,86.98
2023-05-19T21:47:49.389Z,87.80
2023-05-19T21:50:56.049Z,87.74
2023-05-19T21:53:59.115Z,87.40
2023-05-19T21:57:02.716Z,88.15
2023-05-19T22:00:06.764Z,88.06
2023-05-19T22:03:14.897Z,88.13
2023-05-19T22:06:18.434Z,87.30
2023-05-19T22:09:25.048Z,87.43
2023-05-19T22:12:28.052Z,87.00
2023-05-19T22:15:31.418Z,86.73
2023-05-19T22:18:34.715Z,86.57
2023-05-19T22:21:41.217Z,86.08
2023-05-19T22:24:44.558Z,85.72
2023-05-19T22:27:47.804Z,85.66
2023-05-19T22:30:50.927Z,85.61
2023-05-19T22:33:54.408Z,85.84
2023-05-19T22:36:57.496Z,86.25
2023-05-19T22:40:00.373Z,86.41
2023-05-19T22:43:03.576Z,85.94
2023-05-19T22:46:06.595Z,86.36
2023-05-19T22:49:09.699Z,86.09
2023-05-19T22:52:13.233Z,86.13
2023-05-19T22:55:16.618Z,86.27
2023-05-19T22:58:19.490Z,86.31
2023-05-19T23:01:22.428Z,85.86
2023-05-19T23:04:25.927Z,85.80
2023-05-19T23:07:29.133Z,86.15
2023-05-19T23:10:32.747Z,85.96
2023-05-19T23:13:35.879Z,86.07
2023-05-19T23:16:38.912Z,85.37
2023-05-19T23:19:41.932Z,85.60
2023-05-19T23:22:44.977Z,85.34
2023-05-19T23:25:48.162Z,85.16
2023-05-19T23:28:51.498Z,85.11
2023-05-19T23:31:54.918Z,85.27
2023-05-19T23:34:58.335Z,85.38
2023-05-19T23:38:01.300Z,85.94
2023-05-19T23:41:05.135Z,85.80
2023-05-19T23:44:08.709Z,85.92
2023-05-19T23:47:11.815Z,85.85
2023-05-19T23:50:14.828Z,85.80
2023-05-19T23:53:20.371Z,85.63
2023-05-19T23:56:23.432Z,86.11
2023-05-19T23:59:26.496Z,85.47
